PWSweather.com
Personal Weather Stations
Station Observations
KNYSYRAC2
Fairmount Hills, Fairmount, NY 13219

Fairmount HillsFairmount, NY 13219

Lat: 43.03602, Lon: -76.247151

Elevation: 663

Station Type: Ambient Weather WS-2080

http://weather.cerchia.com

High Low Average
Temperature 42.9°F6.1°C 32.1°F0.1°C 37.2°F2.9°C
Dew Point 31.7°F-0.2°C 26.9°F-2.8°C 29.4°F-1.4°C
Winds 7.6 mph 12.2 kmh Calm Calm 2.0 mph SSW3.2 kmh SSW
Wind Gusts 17.1 mph27.5 kmh -- 5.0 mph8.0 kmh
Humidity 82% 63% 74%
Pressure 29.95 in1014.2 mb 29.76 in1007.8 mb -
Precipitation 0.35 in8.9 mm - -
Hour Temp Dew Point Humidity Winds Wind Gusts Pressure Precip Precip Rate Daily Precip Total
12:00 AM 39.6°F4.2°C 29.2°F-1.6°C 66% 6.5 mph SSE10.5 kmh SSE 21.8 mph35.1 kmh 29.97 in1014.9 mb 0.00 in0.0 mm 0.00 in0.0 mm 0.00 in0.0 mm
12:15 AM 39.8°F4.3°C 29.4°F-1.4°C 66% 5.8 mph SSE9.3 kmh SSE 13.4 mph21.6 kmh 29.96 in1014.6 mb 0.00 in0.0 mm 0.00 in0.0 mm 0.00 in0.0 mm
12:30 AM 39.8°F4.3°C 29.4°F-1.4°C 66% 6.0 mph SE9.7 kmh SE 13.4 mph21.6 kmh 29.95 in1014.2 mb 0.00 in0.0 mm 0.00 in0.0 mm 0.00 in0.0 mm
12:45 AM 39.8°F4.3°C 29.8°F-1.2°C 67% 5.3 mph SE8.5 kmh SE 12.3 mph19.8 kmh 29.95 in1014.2 mb 0.00 in0.0 mm 0.00 in0.0 mm 0.00 in0.0 mm
01:00 AM 40.0°F4.4°C 29.6°F-1.3°C 66% 5.3 mph S8.5 kmh S 14.3 mph23.0 kmh 29.95 in1014.2 mb 0.00 in0.0 mm 0.00 in0.0 mm 0.00 in0.0 mm
01:15 AM 40.2°F4.6°C 29.7°F-1.3°C 66% 5.6 mph S9.0 kmh S 14.3 mph23.0 kmh 29.94 in1013.9 mb 0.00 in0.0 mm 0.00 in0.0 mm 0.00 in0.0 mm
01:30 AM 40.2°F4.6°C 29.7°F-1.3°C 66% 7.0 mph SE11.3 kmh SE 17.1 mph27.5 kmh 29.94 in1013.9 mb 0.00 in0.0 mm 0.00 in0.0 mm 0.00 in0.0 mm
01:45 AM 40.4°F4.7°C 29.9°F-1.2°C 66% 7.1 mph SSE11.4 kmh SSE 15.1 mph24.3 kmh 29.94 in1013.9 mb 0.00 in0.0 mm 0.00 in0.0 mm 0.00 in0.0 mm
02:00 AM 40.5°F4.7°C 30.1°F-1.1°C 66% 6.4 mph S10.3 kmh S 14.3 mph23.0 kmh 29.94 in1013.9 mb 0.00 in0.0 mm 0.00 in0.0 mm 0.00 in0.0 mm
02:15 AM 40.9°F4.9°C 30.4°F-0.9°C 66% 7.6 mph S12.2 kmh S 16.2 mph26.1 kmh 29.94 in1013.9 mb 0.00 in0.0 mm 0.00 in0.0 mm 0.00 in0.0 mm
02:30 AM 40.9°F4.9°C 30.4°F-0.9°C 66% 6.9 mph SE11.1 kmh SE 14.3 mph23.0 kmh 29.94 in1013.9 mb 0.00 in0.0 mm 0.00 in0.0 mm 0.00 in0.0 mm
02:45 AM 41.1°F5.1°C 30.6°F-0.8°C 66% 6.2 mph SSE10.0 kmh SSE 16.2 mph26.1 kmh 29.94 in1013.9 mb 0.00 in0.0 mm 0.00 in0.0 mm 0.00 in0.0 mm
03:00 AM 41.3°F5.2°C 30.8°F-0.7°C 66% 4.4 mph SE7.1 kmh SE 12.3 mph19.8 kmh 29.95 in1014.2 mb 0.00 in0.0 mm 0.00 in0.0 mm 0.00 in0.0 mm
03:15 AM 41.4°F5.2°C 30.6°F-0.8°C 65% 1.8 mph SW2.9 kmh SW 6.7 mph10.8 kmh 29.95 in1014.2 mb 0.00 in0.0 mm 0.00 in0.0 mm 0.00 in0.0 mm
03:30 AM 41.6°F5.3°C 30.7°F-0.7°C 65% 2.4 mph S3.9 kmh S 9.5 mph15.3 kmh 29.95 in1014.2 mb 0.00 in0.0 mm 0.00 in0.0 mm 0.00 in0.0 mm
03:45 AM 42.0°F5.6°C 30.7°F-0.7°C 64% 3.3 mph SSE5.3 kmh SSE 9.5 mph15.3 kmh 29.95 in1014.2 mb 0.00 in0.0 mm 0.00 in0.0 mm 0.00 in0.0 mm
04:00 AM 42.5°F5.8°C 31.2°F-0.4°C 64% 5.6 mph SSE9.0 kmh SSE 16.2 mph26.1 kmh 29.95 in1014.2 mb 0.00 in0.0 mm 0.00 in0.0 mm 0.00 in0.0 mm
04:15 AM 42.7°F5.9°C 31.0°F-0.6°C 63% 4.8 mph SSW7.7 kmh SSW 13.4 mph21.6 kmh 29.95 in1014.2 mb 0.00 in0.0 mm 0.00 in0.0 mm 0.00 in0.0 mm
04:30 AM 42.9°F6.1°C 31.2°F-0.4°C 63% 5.0 mph SSE8.0 kmh SSE 14.3 mph23.0 kmh 29.94 in1013.9 mb 0.00 in0.0 mm 0.00 in0.0 mm 0.00 in0.0 mm
04:45 AM 42.7°F5.9°C 31.0°F-0.6°C 63% 3.4 mph SSE5.5 kmh SSE 12.3 mph19.8 kmh 29.95 in1014.2 mb 0.00 in0.0 mm 0.00 in0.0 mm 0.00 in0.0 mm
05:00 AM 42.7°F5.9°C 31.0°F-0.6°C 63% 3.1 mph SW5.0 kmh SW 8.7 mph14.0 kmh 29.95 in1014.2 mb 0.00 in0.0 mm 0.00 in0.0 mm 0.00 in0.0 mm
05:15 AM 42.5°F5.8°C 31.2°F-0.4°C 64% 3.0 mph SSW4.8 kmh SSW 8.7 mph14.0 kmh 29.95 in1014.2 mb 0.00 in0.0 mm 0.00 in0.0 mm 0.00 in0.0 mm
05:30 AM 42.3°F5.7°C 31.0°F-0.6°C 64% 3.3 mph S5.3 kmh S 7.5 mph12.1 kmh 29.95 in1014.2 mb 0.00 in0.0 mm 0.00 in0.0 mm 0.00 in0.0 mm
05:45 AM 42.3°F5.7°C 31.0°F-0.6°C 64% 2.4 mph WSW3.9 kmh WSW 8.7 mph14.0 kmh 29.94 in1013.9 mb 0.00 in0.0 mm 0.00 in0.0 mm 0.00 in0.0 mm
06:00 AM 42.2°F5.7°C 30.9°F-0.6°C 64% 1.5 mph W2.4 kmh W 5.6 mph9.0 kmh 29.94 in1013.9 mb 0.00 in0.0 mm 0.00 in0.0 mm 0.00 in0.0 mm
06:15 AM 42.2°F5.7°C 31.3°F-0.4°C 65% 1.7 mph WSW2.7 kmh WSW 6.7 mph10.8 kmh 29.94 in1013.9 mb 0.00 in0.0 mm 0.00 in0.0 mm 0.00 in0.0 mm
06:30 AM 42.0°F5.6°C 31.1°F-0.5°C 65% 0.8 mph NW1.3 kmh NW 5.6 mph9.0 kmh 29.94 in1013.9 mb 0.00 in0.0 mm 0.00 in0.0 mm 0.00 in0.0 mm
06:45 AM 41.8°F5.4°C 31.3°F-0.4°C 66% 0.2 mph SW0.3 kmh SW 2.8 mph4.5 kmh 29.94 in1013.9 mb 0.00 in0.0 mm 0.00 in0.0 mm 0.00 in0.0 mm
07:00 AM 41.8°F5.4°C 31.7°F-0.2°C 67% 0.8 mph S1.3 kmh S 4.8 mph7.7 kmh 29.93 in1013.5 mb 0.00 in0.0 mm 0.00 in0.0 mm 0.00 in0.0 mm
07:15 AM 41.4°F5.2°C 31.7°F-0.2°C 68% 0.3 mph SE0.5 kmh SE 2.0 mph3.2 kmh 29.92 in1013.2 mb 0.00 in0.0 mm 0.00 in0.0 mm 0.00 in0.0 mm
07:30 AM 40.7°F4.8°C 31.4°F-0.3°C 69% 0.6 mph SSE1.0 kmh SSE 2.8 mph4.5 kmh 29.91 in1012.9 mb 0.00 in0.0 mm 0.00 in0.0 mm 0.00 in0.0 mm
07:45 AM 40.0°F4.4°C 31.0°F-0.6°C 70% 2.1 mph NE3.4 kmh NE 5.6 mph9.0 kmh 29.91 in1012.9 mb 0.00 in0.0 mm 0.00 in0.0 mm 0.00 in0.0 mm
08:00 AM 39.6°F4.2°C 31.0°F-0.6°C 71% 0.5 mph N0.8 kmh N 2.8 mph4.5 kmh 29.91 in1012.9 mb 0.00 in0.0 mm 0.00 in0.0 mm 0.00 in0.0 mm
08:15 AM 39.3°F4.1°C 30.3°F-0.9°C 70% 0.2 mph N0.3 kmh N 2.0 mph3.2 kmh 29.91 in1012.9 mb 0.00 in0.0 mm 0.00 in0.0 mm 0.00 in0.0 mm
08:30 AM 39.3°F4.1°C 30.7°F-0.7°C 71% Calm Calm 0.8 mph1.3 kmh 29.91 in1012.9 mb 0.00 in0.0 mm 0.00 in0.0 mm 0.00 in0.0 mm
08:45 AM 39.5°F4.2°C 30.9°F-0.6°C 71% 0.4 mph N0.6 kmh N 2.8 mph4.5 kmh 29.91 in1012.9 mb 0.00 in0.0 mm 0.00 in0.0 mm 0.00 in0.0 mm
09:00 AM 40.0°F4.4°C 31.0°F-0.6°C 70% 0.1 mph W0.2 kmh W 2.0 mph3.2 kmh 29.90 in1012.5 mb 0.00 in0.0 mm 0.00 in0.0 mm 0.00 in0.0 mm
09:15 AM 40.7°F4.8°C 31.4°F-0.3°C 69% 0.4 mph N0.6 kmh N 3.9 mph6.3 kmh 29.89 in1012.2 mb 0.00 in0.0 mm 0.00 in0.0 mm 0.00 in0.0 mm
09:30 AM 40.7°F4.8°C 31.0°F-0.6°C 68% 1.6 mph N2.6 kmh N 5.6 mph9.0 kmh 29.88 in1011.9 mb 0.00 in0.0 mm 0.00 in0.0 mm 0.00 in0.0 mm
09:45 AM 40.4°F4.7°C 29.9°F-1.2°C 66% 1.8 mph N2.9 kmh N 5.6 mph9.0 kmh 29.88 in1011.9 mb 0.00 in0.0 mm 0.00 in0.0 mm 0.00 in0.0 mm
10:00 AM 40.2°F4.6°C 29.7°F-1.3°C 66% 0.3 mph NE0.5 kmh NE 2.8 mph4.5 kmh 29.86 in1011.2 mb 0.00 in0.0 mm 0.00 in0.0 mm 0.00 in0.0 mm
10:15 AM 40.4°F4.7°C 29.9°F-1.2°C 66% 0.6 mph N1.0 kmh N 3.9 mph6.3 kmh 29.88 in1011.9 mb 0.00 in0.0 mm 0.00 in0.0 mm 0.00 in0.0 mm
10:30 AM 40.2°F4.6°C 29.7°F-1.3°C 66% 0.1 mph NE0.2 kmh NE 2.0 mph3.2 kmh 29.87 in1011.5 mb 0.00 in0.0 mm 0.00 in0.0 mm 0.00 in0.0 mm
10:45 AM 40.0°F4.4°C 29.6°F-1.3°C 66% 0.6 mph NNW1.0 kmh NNW 2.8 mph4.5 kmh 29.88 in1011.9 mb 0.00 in0.0 mm 0.00 in0.0 mm 0.00 in0.0 mm
11:00 AM 40.0°F4.4°C 29.6°F-1.3°C 66% 1.4 mph N2.3 kmh N 3.9 mph6.3 kmh 29.87 in1011.5 mb 0.00 in0.0 mm 0.00 in0.0 mm 0.00 in0.0 mm
11:15 AM 39.6°F4.2°C 30.0°F-1.1°C 68% 1.9 mph NNW3.1 kmh NNW 5.6 mph9.0 kmh 29.89 in1012.2 mb 0.00 in0.0 mm 0.00 in0.0 mm 0.00 in0.0 mm
11:30 AM 39.3°F4.1°C 30.0°F-1.1°C 69% Calm Calm 0.8 mph1.3 kmh 29.88 in1011.9 mb 0.01 in0.3 mm 0.04 in1.0 mm 0.01 in0.3 mm
11:45 AM 38.9°F3.8°C 30.3°F-0.9°C 71% 1.1 mph SE1.8 kmh SE 2.8 mph4.5 kmh 29.86 in1011.2 mb 0.02 in0.5 mm 0.04 in1.0 mm 0.02 in0.5 mm
12:00 PM 38.0°F3.3°C 30.8°F-0.7°C 75% 1.4 mph SE2.3 kmh SE 2.8 mph4.5 kmh 29.84 in1010.5 mb 0.04 in1.0 mm 0.03 in0.8 mm 0.04 in1.0 mm
12:15 PM 37.8°F3.2°C 31.0°F-0.6°C 76% Calm Calm 0.8 mph1.3 kmh 29.83 in1010.2 mb 0.05 in1.3 mm 0.04 in1.0 mm 0.05 in1.3 mm
12:30 PM 37.7°F3.2°C 31.4°F-0.3°C 78% 0.2 mph E0.3 kmh E 2.0 mph3.2 kmh 29.81 in1009.5 mb 0.05 in1.3 mm 0.00 in0.0 mm 0.06 in1.5 mm
12:45 PM 37.7°F3.2°C 31.4°F-0.3°C 78% 0.7 mph SE1.1 kmh SE 2.0 mph3.2 kmh 29.83 in1010.2 mb 0.05 in1.3 mm 0.00 in0.0 mm 0.07 in1.8 mm
01:00 PM 37.1°F2.8°C 31.2°F-0.4°C 79% 0.1 mph E0.2 kmh E 2.0 mph3.2 kmh 29.81 in1009.5 mb 0.05 in1.3 mm 0.00 in0.0 mm 0.08 in2.0 mm
01:15 PM 37.1°F2.8°C 31.5°F-0.3°C 80% 0.5 mph E0.8 kmh E 2.8 mph4.5 kmh 29.80 in1009.1 mb 0.04 in1.0 mm 0.00 in0.0 mm 0.08 in2.0 mm
01:30 PM 37.1°F2.8°C 31.5°F-0.3°C 80% 0.1 mph NNE0.2 kmh NNE 2.0 mph3.2 kmh 29.80 in1009.1 mb 0.04 in1.0 mm 0.00 in0.0 mm 0.09 in2.3 mm
01:45 PM 36.9°F2.7°C 31.7°F-0.2°C 81% 0.1 mph N0.2 kmh N 2.0 mph3.2 kmh 29.80 in1009.1 mb 0.06 in1.5 mm 0.08 in2.0 mm 0.13 in3.3 mm
02:00 PM 36.6°F2.6°C 31.3°F-0.4°C 81% 0.1 mph NE0.2 kmh NE 2.0 mph3.2 kmh 29.78 in1008.5 mb 0.07 in1.8 mm 0.01 in0.3 mm 0.15 in3.8 mm
02:15 PM 36.0°F2.2°C 29.5°F-1.4°C 77% 0.5 mph NE0.8 kmh NE 3.9 mph6.3 kmh 29.79 in1008.8 mb 0.11 in2.8 mm 0.16 in4.1 mm 0.19 in4.8 mm
02:30 PM 35.5°F1.9°C 28.7°F-1.8°C 76% Calm Calm 0.8 mph1.3 kmh 29.79 in1008.8 mb 0.12 in3.0 mm 0.04 in1.0 mm 0.21 in5.3 mm
02:45 PM 35.3°F1.8°C 28.8°F-1.8°C 77% 0.3 mph NE0.5 kmh NE 3.9 mph6.3 kmh 29.77 in1008.1 mb 0.11 in2.8 mm 0.00 in0.0 mm 0.24 in6.1 mm
03:00 PM 35.3°F1.8°C 28.8°F-1.8°C 77% Calm Calm -- 29.77 in1008.1 mb 0.08 in2.0 mm 0.00 in0.0 mm 0.24 in6.1 mm
03:15 PM 35.5°F1.9°C 29.0°F-1.7°C 77% Calm Calm -- 29.77 in1008.1 mb 0.06 in1.5 mm 0.00 in0.0 mm 0.25 in6.4 mm
03:30 PM 35.5°F1.9°C 29.0°F-1.7°C 77% Calm Calm -- 29.76 in1007.8 mb 0.05 in1.3 mm 0.00 in0.0 mm 0.26 in6.6 mm
03:45 PM 35.5°F1.9°C 29.0°F-1.7°C 77% 0.3 mph N0.5 kmh N 2.0 mph3.2 kmh 29.76 in1007.8 mb 0.02 in0.5 mm 0.00 in0.0 mm 0.26 in6.6 mm
04:00 PM 35.1°F1.7°C 28.7°F-1.8°C 77% 0.4 mph N0.6 kmh N 2.0 mph3.2 kmh 29.77 in1008.1 mb 0.04 in1.0 mm 0.03 in0.8 mm 0.27 in6.9 mm
04:15 PM 35.0°F1.7°C 28.8°F-1.8°C 78% 0.5 mph N0.8 kmh N 2.0 mph3.2 kmh 29.77 in1008.1 mb 0.04 in1.0 mm 0.00 in0.0 mm 0.28 in7.1 mm
04:30 PM 34.6°F1.4°C 28.5°F-1.9°C 78% 0.3 mph WNW0.5 kmh WNW 2.8 mph4.5 kmh 29.77 in1008.1 mb 0.04 in1.0 mm 0.00 in0.0 mm 0.30 in7.6 mm
04:45 PM 34.6°F1.4°C 28.5°F-1.9°C 78% 0.3 mph NW0.5 kmh NW 2.0 mph3.2 kmh 29.77 in1008.1 mb 0.05 in1.3 mm 0.04 in1.0 mm 0.31 in7.9 mm
05:00 PM 34.4°F1.3°C 28.6°F-1.9°C 79% 0.3 mph WNW0.5 kmh WNW 2.0 mph3.2 kmh 29.77 in1008.1 mb 0.04 in1.0 mm 0.00 in0.0 mm 0.31 in7.9 mm
05:15 PM 34.1°F1.2°C 28.2°F-2.1°C 79% 0.7 mph NW1.1 kmh NW 3.9 mph6.3 kmh 29.77 in1008.1 mb 0.04 in1.0 mm 0.00 in0.0 mm 0.32 in8.1 mm
05:30 PM 33.9°F1.1°C 28.1°F-2.2°C 79% 0.4 mph NW0.6 kmh NW 2.8 mph4.5 kmh 29.78 in1008.5 mb 0.02 in0.5 mm 0.00 in0.0 mm 0.32 in8.1 mm
05:45 PM 33.7°F0.9°C 27.9°F-2.3°C 79% 0.6 mph WNW1.0 kmh WNW 3.9 mph6.3 kmh 29.78 in1008.5 mb 0.02 in0.5 mm 0.00 in0.0 mm 0.33 in8.4 mm
06:00 PM 33.5°F0.8°C 27.7°F-2.4°C 79% 0.9 mph W1.4 kmh W 3.9 mph6.3 kmh 29.79 in1008.8 mb 0.02 in0.5 mm 0.00 in0.0 mm 0.33 in8.4 mm
06:15 PM 33.3°F0.7°C 27.5°F-2.5°C 79% 0.1 mph W0.2 kmh W 2.8 mph4.5 kmh 29.79 in1008.8 mb 0.01 in0.3 mm 0.00 in0.0 mm 0.33 in8.4 mm
06:30 PM 33.3°F0.7°C 27.5°F-2.5°C 79% 0.6 mph SW1.0 kmh SW 2.8 mph4.5 kmh 29.79 in1008.8 mb 0.02 in0.5 mm 0.04 in1.0 mm 0.34 in8.6 mm
06:45 PM 33.2°F0.7°C 27.4°F-2.6°C 79% 0.2 mph W0.3 kmh W 2.0 mph3.2 kmh 29.80 in1009.1 mb 0.01 in0.3 mm 0.00 in0.0 mm 0.34 in8.6 mm
07:00 PM 33.2°F0.7°C 27.7°F-2.4°C 80% 0.1 mph NW0.2 kmh NW 3.9 mph6.3 kmh 29.80 in1009.1 mb 0.01 in0.3 mm 0.00 in0.0 mm 0.34 in8.6 mm
07:15 PM 33.0°F0.6°C 27.5°F-2.5°C 80% 0.8 mph W1.3 kmh W 3.9 mph6.3 kmh 29.81 in1009.5 mb 0.02 in0.5 mm 0.04 in1.0 mm 0.35 in8.9 mm
07:30 PM 32.8°F0.4°C 27.3°F-2.6°C 80% 0.6 mph NNW1.0 kmh NNW 3.9 mph6.3 kmh 29.81 in1009.5 mb 0.01 in0.3 mm 0.00 in0.0 mm 0.35 in8.9 mm
07:45 PM 32.4°F0.2°C 27.3°F-2.6°C 81% 0.5 mph NW0.8 kmh NW 2.8 mph4.5 kmh 29.81 in1009.5 mb 0.01 in0.3 mm 0.00 in0.0 mm 0.35 in8.9 mm
08:00 PM 32.3°F0.2°C 27.1°F-2.7°C 81% 0.8 mph WNW1.3 kmh WNW 2.8 mph4.5 kmh 29.81 in1009.5 mb 0.01 in0.3 mm 0.00 in0.0 mm 0.35 in8.9 mm
08:15 PM 32.3°F0.2°C 27.1°F-2.7°C 81% Calm Calm 0.8 mph1.3 kmh 29.80 in1009.1 mb 0.00 in0.0 mm 0.00 in0.0 mm 0.35 in8.9 mm
08:30 PM 32.1°F0.1°C 26.9°F-2.8°C 81% 0.4 mph WNW0.6 kmh WNW 2.0 mph3.2 kmh 29.79 in1008.8 mb 0.00 in0.0 mm 0.00 in0.0 mm 0.35 in8.9 mm
08:45 PM 32.1°F0.1°C 26.9°F-2.8°C 81% 0.1 mph N0.2 kmh N 2.8 mph4.5 kmh 29.80 in1009.1 mb 0.00 in0.0 mm 0.00 in0.0 mm 0.35 in8.9 mm
09:00 PM 32.3°F0.2°C 27.1°F-2.7°C 81% 1.2 mph W1.9 kmh W 4.8 mph7.7 kmh 29.81 in1009.5 mb 0.00 in0.0 mm 0.00 in0.0 mm 0.35 in8.9 mm
09:15 PM 32.1°F0.1°C 26.9°F-2.8°C 81% Calm Calm 2.0 mph3.2 kmh 29.82 in1009.8 mb 0.00 in0.0 mm 0.00 in0.0 mm 0.35 in8.9 mm
09:30 PM 32.3°F0.2°C 27.1°F-2.7°C 81% 1.3 mph WSW2.1 kmh WSW 4.8 mph7.7 kmh 29.82 in1009.8 mb 0.00 in0.0 mm 0.00 in0.0 mm 0.35 in8.9 mm
09:45 PM 32.1°F0.1°C 26.9°F-2.8°C 81% Calm Calm 2.0 mph3.2 kmh 29.82 in1009.8 mb 0.00 in0.0 mm 0.00 in0.0 mm 0.35 in8.9 mm
10:00 PM 32.1°F0.1°C 26.9°F-2.8°C 81% 0.5 mph SW0.8 kmh SW 2.8 mph4.5 kmh 29.82 in1009.8 mb 0.00 in0.0 mm 0.00 in0.0 mm 0.35 in8.9 mm
10:15 PM 32.1°F0.1°C 26.9°F-2.8°C 81% 1.2 mph SW1.9 kmh SW 5.6 mph9.0 kmh 29.82 in1009.8 mb 0.00 in0.0 mm 0.00 in0.0 mm 0.35 in8.9 mm
10:30 PM 32.1°F0.1°C 27.2°F-2.7°C 82% 0.8 mph S1.3 kmh S 3.9 mph6.3 kmh 29.83 in1010.2 mb 0.00 in0.0 mm 0.00 in0.0 mm 0.35 in8.9 mm
10:45 PM 32.3°F0.2°C 27.4°F-2.6°C 82% 0.3 mph W0.5 kmh W 2.8 mph4.5 kmh 29.82 in1009.8 mb 0.00 in0.0 mm 0.00 in0.0 mm 0.35 in8.9 mm
11:00 PM 32.3°F0.2°C 27.4°F-2.6°C 82% 0.9 mph W1.4 kmh W 4.8 mph7.7 kmh 29.82 in1009.8 mb 0.00 in0.0 mm 0.00 in0.0 mm 0.35 in8.9 mm
11:15 PM 32.6°F0.3°C 27.8°F-2.3°C 82% 2.1 mph W3.4 kmh W 5.6 mph9.0 kmh 29.81 in1009.5 mb 0.00 in0.0 mm 0.00 in0.0 mm 0.35 in8.9 mm
11:30 PM 32.8°F0.4°C 27.6°F-2.4°C 81% 2.5 mph WSW4.0 kmh WSW 10.3 mph16.6 kmh 29.80 in1009.1 mb 0.00 in0.0 mm 0.00 in0.0 mm 0.35 in8.9 mm
11:45 PM 32.8°F0.4°C 27.6°F-2.4°C 81% 0.9 mph W1.4 kmh W 5.6 mph9.0 kmh 29.80 in1009.1 mb 0.00 in0.0 mm 0.00 in0.0 mm 0.35 in8.9 mm